Time;durP1;ratioP1;P1;durP2;ratioP2;P2;SDS_P1;SDS_P2;PMS_P1;PMS_P2;Temp;Humidity;BMP_temperature;BMP_pressure;BME280_temperature;BME280_humidity;BME280_pressure;Samples;Min_cycle;Max_cycle;Signal;HPM_P1;HPM_P2
2022/01/26 00:00:06;;;;;;;86.03;32.80;;;3.40;99.90;;;;;;5065635;28;20064;-59
2022/01/26 00:08:02;;;;;;;95.45;34.35;;;3.50;99.90;;;;;;5081295;28;20057;-58
2022/01/26 00:10:28;;;;;;;91.65;33.67;;;3.40;99.90;;;;;;5046039;28;20533;-58
2022/01/26 00:12:54;;;;;;;87.50;32.33;;;3.50;99.90;;;;;;5095038;28;20067;-58
2022/01/26 00:15:20;;;;;;;92.35;32.55;;;3.30;99.90;;;;;;5082464;28;20040;-58
2022/01/26 00:17:46;;;;;;;94.80;35.55;;;3.40;99.90;;;;;;5100722;28;20040;-58
2022/01/26 00:20:26;;;;;;;86.18;35.28;;;3.50;99.90;;;;;;5082219;28;20047;-58
2022/01/26 00:27:57;;;;;;;90.82;34.72;;;3.40;99.90;;;;;;5074203;28;20040;-58
2022/01/26 00:38:40;;;;;;;101.05;36.55;;;3.30;99.90;;;;;;5080845;28;20037;-59
2022/01/26 00:41:10;;;;;;;87.53;33.65;;;3.20;99.90;;;;;;5061995;28;20048;-58
2022/01/26 00:43:38;;;;;;;94.03;34.60;;;3.40;99.90;;;;;;5079941;28;20056;-59
2022/01/26 00:46:06;;;;;;;90.15;32.92;;;3.40;99.90;;;;;;5079983;28;20084;-58
2022/01/26 00:48:36;;;;;;;88.75;33.83;;;3.30;99.90;;;;;;5079903;28;20098;-59
2022/01/26 00:51:04;;;;;;;95.10;34.72;;;3.30;99.90;;;;;;5080023;28;20055;-58
2022/01/26 00:53:34;;;;;;;89.35;33.63;;;3.30;99.90;;;;;;5079629;28;20055;-58
2022/01/26 00:56:02;;;;;;;96.18;35.00;;;3.30;99.90;;;;;;5061855;28;20108;-57
2022/01/26 00:58:27;;;;;;;93.75;34.92;;;3.20;99.90;;;;;;5079893;28;20051;-58
2022/01/26 01:00:54;;;;;;;88.60;31.95;;;3.30;99.90;;;;;;5061401;28;20044;-58
2022/01/26 01:03:21;;;;;;;92.68;33.88;;;3.30;99.90;;;;;;5079853;28;20206;-57
2022/01/26 01:05:58;;;;;;;87.57;32.20;;;3.20;99.90;;;;;;5061439;28;20048;-58
2022/01/26 01:08:25;;;;;;;90.40;33.50;;;3.30;99.90;;;;;;5045357;28;20040;-57
2022/01/26 01:10:53;;;;;;;96.53;34.72;;;3.30;99.90;;;;;;5079178;28;20052;-58
2022/01/26 01:13:23;;;;;;;90.78;33.88;;;3.30;99.90;;;;;;5079107;28;20036;-59
2022/01/26 01:15:50;;;;;;;89.22;34.17;;;3.20;99.90;;;;;;5081992;28;20043;-58
2022/01/26 01:31:26;;;;;;;89.57;31.70;;;3.30;99.90;;;;;;5079111;28;20049;-58
2022/01/26 01:33:52;;;;;;;90.05;31.75;;;3.30;99.90;;;;;;5079752;28;20063;-58
2022/01/26 01:36:20;;;;;;;88.07;33.28;;;3.30;99.90;;;;;;5078794;28;20044;-58
2022/01/26 01:38:46;;;;;;;91.93;32.60;;;3.30;99.90;;;;;;5044784;28;20106;-58
2022/01/26 01:41:12;;;;;;;85.57;30.80;;;3.30;99.90;;;;;;5078969;28;20044;-58
2022/01/26 01:43:38;;;;;;;86.20;31.10;;;3.40;99.90;;;;;;5078769;28;20100;-58
2022/01/26 01:46:05;;;;;;;85.93;32.47;;;3.30;99.90;;;;;;5060944;28;20052;-58
2022/01/26 01:48:32;;;;;;;84.88;32.15;;;3.20;99.90;;;;;;5060859;28;20066;-58
2022/01/26 01:51:04;;;;;;;87.57;30.88;;;3.30;99.90;;;;;;5028893;28;20419;-58
2022/01/26 01:53:36;;;;;;;89.55;34.38;;;3.30;99.90;;;;;;5078852;28;20036;-58
2022/01/26 01:56:02;;;;;;;94.13;32.13;;;3.20;99.90;;;;;;5061745;28;20044;-58
2022/01/26 01:58:29;;;;;;;88.75;32.13;;;3.30;99.90;;;;;;5078561;28;20043;-59
2022/01/26 02:00:55;;;;;;;91.00;34.05;;;3.30;99.90;;;;;;5078509;28;20048;-58
2022/01/26 02:03:21;;;;;;;91.22;32.97;;;3.40;99.90;;;;;;5078895;28;20052;-58
2022/01/26 02:05:46;;;;;;;93.90;34.65;;;3.60;99.90;;;;;;5078582;28;20172;-58
2022/01/26 02:08:12;;;;;;;85.80;31.83;;;3.20;99.90;;;;;;5079457;28;20032;-58
2022/01/26 02:10:38;;;;;;;90.95;33.33;;;3.30;99.90;;;;;;5078330;28;20049;-58
2022/01/26 02:13:14;;;;;;;95.95;34.75;;;3.20;99.90;;;;;;5060983;28;20036;-58
2022/01/26 02:15:50;;;;;;;91.60;33.60;;;3.30;99.90;;;;;;5078449;28;20074;-58
2022/01/26 02:21:23;;;;;;;87.90;32.90;;;3.20;99.90;;;;;;5078286;28;20048;-58
2022/01/26 02:55:36;;;;;;;89.33;34.30;;;3.30;99.90;;;;;;5054235;28;20153;-58
2022/01/26 02:57:46;;;;;;;92.30;38.35;;;3.10;99.90;;;;;;5054961;28;20331;-57
2022/01/26 03:05:12;;;;;;;104.35;38.05;;;3.20;99.90;;;;;;5077911;28;20529;-58
2022/01/26 03:10:14;;;;;;;85.38;35.17;;;3.20;99.90;;;;;;5077791;28;20052;-58
2022/01/26 03:12:49;;;;;;;87.05;33.00;;;3.20;99.90;;;;;;5091292;28;20036;-58
2022/01/26 03:15:24;;;;;;;83.72;33.65;;;3.10;99.90;;;;;;5098063;28;20067;-59
2022/01/26 03:18:20;;;;;;;85.57;34.83;;;3.20;99.90;;;;;;5064505;28;20041;-59
2022/01/26 03:20:46;;;;;;;88.85;35.05;;;3.20;99.90;;;;;;5098113;28;20089;-58
2022/01/26 03:28:48;;;;;;;83.97;34.13;;;3.30;99.90;;;;;;5082316;28;20665;-58
2022/01/26 03:36:21;;;;;;;83.90;34.30;;;3.30;99.90;;;;;;5081306;28;20063;-59
2022/01/26 03:38:57;;;;;;;78.88;32.85;;;3.50;99.90;;;;;;5063272;28;20083;-58
2022/01/26 03:41:37;;;;;;;88.38;34.83;;;3.30;99.90;;;;;;5063271;28;20048;-58
2022/01/26 03:44:04;;;;;;;80.72;32.15;;;3.20;99.90;;;;;;5080812;28;20107;-58
2022/01/26 03:46:30;;;;;;;84.65;35.60;;;3.20;99.90;;;;;;5081690;28;20119;-59
2022/01/26 03:48:56;;;;;;;84.60;32.97;;;3.20;99.90;;;;;;5080599;28;20040;-58
2022/01/26 03:51:21;;;;;;;82.47;33.38;;;3.20;99.90;;;;;;5081429;28;20137;-58
2022/01/26 03:53:47;;;;;;;87.13;36.13;;;3.20;99.90;;;;;;5079704;28;20108;-58
2022/01/26 03:56:13;;;;;;;80.15;34.03;;;3.20;99.90;;;;;;5063133;28;20097;-57
2022/01/26 03:58:39;;;;;;;86.95;35.22;;;3.20;99.90;;;;;;5080935;28;20048;-58
2022/01/26 04:01:04;;;;;;;78.72;33.40;;;3.10;99.90;;;;;;5081032;28;20093;-58
2022/01/26 04:03:30;;;;;;;73.32;33.30;;;3.20;99.90;;;;;;5063170;28;20040;-58
2022/01/26 04:05:56;;;;;;;76.40;31.48;;;3.20;99.90;;;;;;5080647;28;20102;-58
2022/01/26 04:08:27;;;;;;;78.05;32.80;;;3.30;99.90;;;;;;5081310;28;20032;-58
2022/01/26 04:13:22;;;;;;;76.55;31.60;;;3.10;99.90;;;;;;5063189;28;20055;-58
2022/01/26 04:15:48;;;;;;;75.45;32.70;;;3.30;99.90;;;;;;5080617;28;20040;-58
2022/01/26 04:18:19;;;;;;;77.82;31.30;;;3.20;99.90;;;;;;5080401;28;20041;-58
2022/01/26 04:20:49;;;;;;;76.20;30.03;;;3.20;99.90;;;;;;5080394;28;20047;-58
2022/01/26 04:23:25;;;;;;;78.07;30.75;;;3.20;99.90;;;;;;5080377;28;20042;-58
2022/01/26 04:25:52;;;;;;;72.57;30.67;;;3.30;99.90;;;;;;5062663;28;20059;-58
2022/01/26 04:28:25;;;;;;;71.07;30.30;;;3.20;99.90;;;;;;5080360;28;20044;-58
2022/01/26 04:30:51;;;;;;;72.95;31.33;;;3.10;99.90;;;;;;5063066;28;20124;-59
2022/01/26 04:33:16;;;;;;;75.90;30.45;;;3.20;99.90;;;;;;5080447;28;20044;-58
2022/01/26 04:35:45;;;;;;;66.93;29.02;;;3.20;99.90;;;;;;5062264;28;20040;-59
2022/01/26 04:40:45;;;;;;;71.90;27.63;;;3.20;99.90;;;;;;5079881;28;20107;-58
2022/01/26 04:43:19;;;;;;;69.22;27.75;;;3.10;99.90;;;;;;5069270;28;20564;-58
2022/01/26 04:45:45;;;;;;;71.80;31.13;;;3.20;99.90;;;;;;5080150;28;20049;-57
2022/01/26 04:48:11;;;;;;;71.53;30.00;;;3.20;99.90;;;;;;5079931;28;20050;-57
2022/01/26 04:50:36;;;;;;;65.32;27.85;;;3.10;99.90;;;;;;5080099;28;20102;-57
2022/01/26 04:53:02;;;;;;;73.32;29.90;;;3.10;99.90;;;;;;5079705;28;20137;-58
2022/01/26 04:55:28;;;;;;;68.93;26.17;;;3.20;99.90;;;;;;5080574;28;20045;-58
2022/01/26 04:57:54;;;;;;;69.60;28.05;;;3.20;99.90;;;;;;5079530;28;20032;-57
2022/01/26 05:00:19;;;;;;;68.95;28.92;;;3.10;99.90;;;;;;5079619;28;20079;-57
2022/01/26 05:02:45;;;;;;;65.20;26.50;;;3.10;99.90;;;;;;5079784;28;20064;-58
2022/01/26 05:05:12;;;;;;;72.60;28.63;;;3.10;99.90;;;;;;5079403;28;20051;-58
2022/01/26 05:07:37;;;;;;;71.13;29.63;;;3.00;99.90;;;;;;5080062;28;20044;-58
2022/01/26 05:10:04;;;;;;;70.50;29.48;;;3.00;99.90;;;;;;5079228;28;20074;-58
2022/01/26 05:12:30;;;;;;;71.65;29.90;;;3.10;99.90;;;;;;5091927;28;20628;-59
2022/01/26 05:14:56;;;;;;;66.90;27.92;;;2.90;99.90;;;;;;5098156;28;20052;-58
2022/01/26 05:17:23;;;;;;;66.57;28.25;;;3.10;99.90;;;;;;5098615;28;20035;-58
2022/01/26 05:19:54;;;;;;;69.93;29.27;;;3.00;99.90;;;;;;5099332;28;20052;-59
2022/01/26 05:22:20;;;;;;;63.35;26.25;;;3.00;99.90;;;;;;5099596;28;20125;-58
2022/01/26 05:24:47;;;;;;;68.70;28.05;;;3.10;99.90;;;;;;5099879;28;20044;-58
2022/01/26 05:27:13;;;;;;;69.20;25.88;;;3.00;99.90;;;;;;5095434;28;20041;-58
2022/01/26 05:29:39;;;;;;;66.03;27.88;;;3.00;99.90;;;;;;5078628;28;20037;-58
2022/01/26 05:32:05;;;;;;;70.03;28.20;;;3.10;99.90;;;;;;5073431;28;20055;-58
2022/01/26 05:34:31;;;;;;;67.85;27.83;;;2.90;99.90;;;;;;5074837;28;20297;-58
2022/01/26 05:36:56;;;;;;;68.32;27.27;;;3.00;99.90;;;;;;5075662;28;20060;-58
2022/01/26 05:39:22;;;;;;;71.75;29.25;;;3.00;99.90;;;;;;5075633;28;20055;-58
2022/01/26 05:41:48;;;;;;;67.13;26.48;;;3.00;99.90;;;;;;5075632;28;20078;-58
2022/01/26 05:44:14;;;;;;;69.45;28.65;;;2.90;99.90;;;;;;5076714;28;20048;-59
2022/01/26 05:46:46;;;;;;;69.90;27.38;;;3.00;99.90;;;;;;5078923;28;20054;-57
2022/01/26 05:49:13;;;;;;;71.65;27.85;;;2.90;99.90;;;;;;5076933;28;20059;-58
2022/01/26 05:51:39;;;;;;;69.22;26.80;;;2.90;99.90;;;;;;5078325;28;20048;-57
2022/01/26 05:54:07;;;;;;;68.15;27.98;;;3.00;99.90;;;;;;5078579;28;20045;-58
2022/01/26 05:56:33;;;;;;;70.43;28.90;;;2.90;99.90;;;;;;5078131;28;20041;-58
2022/01/26 05:58:59;;;;;;;66.32;26.52;;;2.90;99.90;;;;;;5078836;28;20216;-58
2022/01/26 06:01:25;;;;;;;72.78;28.13;;;2.90;99.90;;;;;;5077212;28;20048;-58
2022/01/26 06:03:51;;;;;;;75.30;29.05;;;2.90;99.90;;;;;;5079340;28;20051;-58
2022/01/26 06:06:17;;;;;;;64.60;25.15;;;2.90;99.90;;;;;;5078638;28;20048;-57
2022/01/26 06:08:42;;;;;;;71.75;28.55;;;2.90;99.90;;;;;;5060602;28;20092;-58
2022/01/26 06:11:08;;;;;;;71.47;27.92;;;2.90;99.90;;;;;;5077055;28;20040;-57
2022/01/26 06:13:34;;;;;;;69.78;27.35;;;2.90;99.90;;;;;;5097592;28;20051;-57
2022/01/26 06:16:00;;;;;;;71.53;28.23;;;2.90;99.90;;;;;;5098858;28;20047;-58
2022/01/26 06:18:26;;;;;;;73.00;27.50;;;2.80;99.90;;;;;;5080449;28;20413;-58
2022/01/26 06:20:52;;;;;;;76.25;27.48;;;2.80;99.90;;;;;;5080781;28;20048;-58
2022/01/26 06:23:19;;;;;;;67.63;26.08;;;2.90;99.90;;;;;;5080062;28;20044;-57
2022/01/26 06:25:45;;;;;;;67.13;26.70;;;2.90;99.90;;;;;;5080977;28;20074;-58
2022/01/26 06:28:13;;;;;;;67.60;26.75;;;2.90;99.90;;;;;;5068246;28;20048;-58
2022/01/26 06:30:44;;;;;;;70.63;30.85;;;2.80;99.90;;;;;;5078377;28;20078;-58
2022/01/26 06:33:09;;;;;;;68.50;28.85;;;2.90;99.90;;;;;;5078356;28;20049;-58
2022/01/26 06:35:35;;;;;;;67.60;27.80;;;2.90;99.90;;;;;;5060289;28;20052;-58
2022/01/26 06:38:02;;;;;;;68.32;26.75;;;2.80;99.90;;;;;;5078705;28;20402;-58
2022/01/26 06:40:28;;;;;;;77.05;29.75;;;2.80;99.90;;;;;;5060012;28;20040;-58
2022/01/26 06:43:01;;;;;;;77.47;32.70;;;2.90;99.90;;;;;;5078609;28;20147;-58
2022/01/26 06:45:33;;;;;;;69.70;28.75;;;2.90;99.90;;;;;;5078051;28;20121;-58
2022/01/26 06:50:25;;;;;;;73.55;29.83;;;2.90;99.90;;;;;;5078098;28;20104;-58
2022/01/26 06:52:51;;;;;;;75.47;29.83;;;2.80;99.90;;;;;;5059860;28;20040;-58
2022/01/26 06:55:18;;;;;;;76.88;30.17;;;2.80;99.90;;;;;;5078791;28;20068;-59
2022/01/26 06:57:44;;;;;;;75.75;29.23;;;2.80;99.90;;;;;;5059933;28;20059;-58
2022/01/26 07:00:11;;;;;;;73.00;28.50;;;3.00;99.90;;;;;;5059973;28;20053;-59
2022/01/26 07:02:37;;;;;;;74.90;27.90;;;2.90;99.90;;;;;;5077822;28;20096;-59
2022/01/26 07:05:12;;;;;;;75.80;32.38;;;2.90;99.90;;;;;;5060184;28;20072;-59
2022/01/26 07:07:40;;;;;;;75.05;29.95;;;2.90;99.90;;;;;;5081099;28;20064;-58
2022/01/26 07:10:08;;;;;;;79.55;29.77;;;2.90;99.90;;;;;;5081778;28;20111;-59
2022/01/26 07:12:34;;;;;;;70.72;28.75;;;3.00;99.90;;;;;;5058758;28;20437;-59
2022/01/26 07:23:13;;;;;;;79.55;31.65;;;3.00;99.90;;;;;;5101680;28;20071;-59
2022/01/26 07:25:39;;;;;;;81.68;31.90;;;3.00;99.90;;;;;;5084147;28;20047;-58
2022/01/26 07:28:05;;;;;;;81.68;30.08;;;3.10;99.90;;;;;;5090759;28;20076;-59
2022/01/26 07:30:34;;;;;;;76.68;30.67;;;3.00;99.90;;;;;;5063425;28;20052;-58
2022/01/26 07:33:00;;;;;;;79.78;35.30;;;3.00;99.90;;;;;;5063675;28;20041;-58
2022/01/26 07:35:26;;;;;;;75.03;32.45;;;3.10;99.90;;;;;;5063541;28;20052;-59
2022/01/26 07:37:54;;;;;;;85.75;35.63;;;3.10;99.90;;;;;;5063970;28;20036;-59
2022/01/26 07:40:20;;;;;;;80.38;32.67;;;3.10;99.90;;;;;;5063089;28;20105;-59
2022/01/26 07:42:45;;;;;;;83.30;34.35;;;3.10;99.90;;;;;;5081730;28;20083;-59
2022/01/26 07:45:11;;;;;;;82.20;35.42;;;3.10;99.90;;;;;;5062911;28;20118;-60
2022/01/26 07:47:37;;;;;;;82.70;33.30;;;3.20;99.90;;;;;;5081271;28;20036;-59
2022/01/26 07:50:11;;;;;;;76.25;31.75;;;3.20;99.90;;;;;;5081012;28;20102;-59
2022/01/26 07:52:39;;;;;;;81.30;32.95;;;3.00;99.90;;;;;;5063097;28;20032;-58
2022/01/26 07:55:11;;;;;;;79.45;33.75;;;3.10;99.90;;;;;;5064285;28;20052;-58
2022/01/26 07:57:37;;;;;;;79.20;32.28;;;3.20;99.90;;;;;;5080799;28;20037;-58
2022/01/26 08:00:06;;;;;;;84.93;33.13;;;3.20;99.90;;;;;;5046872;28;20221;-59
2022/01/26 08:02:31;;;;;;;86.50;35.08;;;3.20;99.90;;;;;;5080808;28;20037;-59
2022/01/26 08:04:57;;;;;;;83.63;34.75;;;3.20;99.90;;;;;;5062709;28;20040;-59
2022/01/26 08:07:23;;;;;;;75.00;33.10;;;3.00;99.90;;;;;;5080790;28;20048;-59
2022/01/26 08:09:49;;;;;;;88.57;32.88;;;3.20;99.90;;;;;;5062851;28;20051;-59
2022/01/26 08:12:15;;;;;;;80.70;33.20;;;3.20;99.90;;;;;;5063365;28;20434;-59
2022/01/26 08:14:42;;;;;;;79.88;34.30;;;3.30;99.90;;;;;;5080273;28;20052;-56
2022/01/26 08:17:09;;;;;;;80.13;33.40;;;3.30;99.90;;;;;;5059142;28;20044;-58
2022/01/26 08:19:35;;;;;;;82.28;34.08;;;3.30;99.90;;;;;;5075773;28;20071;-58
2022/01/26 08:22:02;;;;;;;78.20;33.00;;;3.20;99.90;;;;;;5076926;28;20051;-58
2022/01/26 08:24:28;;;;;;;77.88;34.40;;;3.30;99.90;;;;;;5077431;28;20048;-58
2022/01/26 08:26:58;;;;;;;90.22;35.13;;;3.30;99.90;;;;;;5076719;28;20044;-57
2022/01/26 08:29:36;;;;;;;85.65;35.67;;;3.40;99.90;;;;;;5059139;28;20052;-58
2022/01/26 08:32:02;;;;;;;82.68;35.58;;;3.40;99.90;;;;;;5076438;28;20087;-57
2022/01/26 08:34:28;;;;;;;84.43;36.03;;;3.30;99.90;;;;;;5076881;28;20537;-58
2022/01/26 08:36:54;;;;;;;82.03;35.05;;;3.30;99.90;;;;;;5058280;28;20062;-58
2022/01/26 08:39:19;;;;;;;79.78;34.47;;;3.40;99.90;;;;;;5075946;28;20053;-58
2022/01/26 08:41:45;;;;;;;85.22;34.08;;;3.30;99.90;;;;;;5077264;28;20174;-58
2022/01/26 08:44:11;;;;;;;84.28;36.88;;;3.40;99.90;;;;;;5075471;28;20059;-58
2022/01/26 08:46:37;;;;;;;87.45;37.33;;;3.40;99.90;;;;;;5076578;28;20108;-58
2022/01/26 08:49:04;;;;;;;78.05;33.33;;;3.40;99.90;;;;;;5076142;28;20043;-58
2022/01/26 08:51:30;;;;;;;77.78;34.20;;;3.40;99.90;;;;;;5076545;28;20052;-58
2022/01/26 08:53:56;;;;;;;85.25;37.17;;;3.40;99.90;;;;;;5076579;28;20076;-58
2022/01/26 08:56:22;;;;;;;74.20;33.80;;;3.50;99.90;;;;;;5041987;28;20048;-58
2022/01/26 08:58:48;;;;;;;78.88;35.13;;;3.40;99.90;;;;;;5076716;28;20045;-56
2022/01/26 09:01:13;;;;;;;78.43;34.47;;;3.50;99.90;;;;;;5075222;28;20053;-58
2022/01/26 09:03:39;;;;;;;82.32;34.13;;;3.50;99.90;;;;;;5076830;28;20080;-57
2022/01/26 09:06:09;;;;;;;77.40;34.15;;;3.50;99.90;;;;;;5076491;28;20044;-58
2022/01/26 09:08:38;;;;;;;79.43;34.33;;;3.60;99.90;;;;;;5042119;28;20045;-58
2022/01/26 09:11:03;;;;;;;75.10;32.97;;;3.50;99.90;;;;;;5076298;28;20040;-58
2022/01/26 09:13:31;;;;;;;73.45;33.17;;;3.60;99.90;;;;;;5058204;28;20048;-57
2022/01/26 09:15:58;;;;;;;77.78;36.50;;;3.60;99.90;;;;;;5076009;28;20044;-58
2022/01/26 09:18:34;;;;;;;76.85;34.58;;;3.60;99.90;;;;;;5058145;28;20048;-57
2022/01/26 09:21:00;;;;;;;77.65;34.60;;;3.60;99.90;;;;;;5076574;28;20049;-57
2022/01/26 09:23:26;;;;;;;72.30;31.80;;;3.70;99.90;;;;;;5057742;28;20047;-57
2022/01/26 09:25:51;;;;;;;81.82;35.22;;;3.80;99.90;;;;;;5076550;28;20048;-58
2022/01/26 09:28:17;;;;;;;74.82;33.55;;;3.70;99.90;;;;;;5075563;28;20102;-57
2022/01/26 09:30:43;;;;;;;75.43;35.15;;;3.80;99.90;;;;;;5057097;28;20048;-57
2022/01/26 09:33:08;;;;;;;80.93;34.35;;;3.70;99.90;;;;;;5074809;28;20414;-57
2022/01/26 09:35:34;;;;;;;72.13;32.08;;;3.80;99.90;;;;;;5075786;28;20080;-57
2022/01/26 09:38:00;;;;;;;73.57;33.50;;;3.70;99.90;;;;;;5075629;28;20059;-57
2022/01/26 09:40:25;;;;;;;83.65;34.22;;;3.80;99.90;;;;;;5040753;28;20072;-57
2022/01/26 09:42:51;;;;;;;79.70;33.00;;;3.80;99.90;;;;;;5075678;28;20192;-57
2022/01/26 09:45:17;;;;;;;72.57;32.90;;;3.90;99.90;;;;;;5075452;28;20082;-58
2022/01/26 09:47:44;;;;;;;72.00;33.33;;;3.80;99.90;;;;;;5074173;28;20044;-57
2022/01/26 09:50:10;;;;;;;77.82;32.78;;;3.80;99.90;;;;;;5075261;28;20048;-57
2022/01/26 09:52:37;;;;;;;71.40;31.25;;;3.80;99.90;;;;;;5075310;28;20131;-58
2022/01/26 09:55:05;;;;;;;80.25;32.47;;;4.20;99.90;;;;;;5058286;28;20418;-59
2022/01/26 09:57:31;;;;;;;71.15;32.13;;;3.80;99.90;;;;;;5075219;28;20049;-59
2022/01/26 09:59:58;;;;;;;80.57;33.15;;;3.90;99.90;;;;;;5041141;28;20053;-60
2022/01/26 10:02:29;;;;;;;80.07;34.83;;;3.90;99.90;;;;;;5075640;28;20071;-59
2022/01/26 10:05:10;;;;;;;81.25;34.58;;;3.90;99.90;;;;;;5075256;28;20051;-59
2022/01/26 10:07:48;;;;;;;75.28;32.05;;;3.90;99.90;;;;;;5058000;28;20068;-60
2022/01/26 10:18:06;;;;;;;69.32;29.65;;;4.00;99.90;;;;;;5098566;28;20135;-59
2022/01/26 10:20:39;;;;;;;66.32;27.60;;;3.90;99.90;;;;;;5080789;28;20489;-59
2022/01/26 10:23:13;;;;;;;70.80;29.15;;;3.90;99.90;;;;;;5080247;28;20123;-60
2022/01/26 10:25:41;;;;;;;65.95;28.73;;;4.00;99.90;;;;;;5099072;28;20067;-60
2022/01/26 10:28:09;;;;;;;60.50;25.92;;;4.00;99.90;;;;;;5087156;28;20049;-59
2022/01/26 10:30:35;;;;;;;64.10;27.98;;;4.00;99.90;;;;;;5060462;28;20045;-60
2022/01/26 10:33:08;;;;;;;67.82;29.75;;;4.00;99.90;;;;;;5078404;28;20098;-60
2022/01/26 10:35:34;;;;;;;65.35;27.88;;;4.00;99.90;;;;;;5078597;28;20044;-60
2022/01/26 10:38:00;;;;;;;68.45;29.27;;;4.00;99.90;;;;;;5078765;28;20045;-59
2022/01/26 10:40:28;;;;;;;58.22;27.00;;;4.00;99.90;;;;;;5078279;28;20045;-59
2022/01/26 10:43:00;;;;;;;75.60;29.40;;;4.00;99.90;;;;;;5082336;28;20112;-59
2022/01/26 10:45:32;;;;;;;59.55;25.92;;;4.10;99.90;;;;;;5082227;28;20097;-59
2022/01/26 10:48:10;;;;;;;67.75;27.70;;;4.00;99.90;;;;;;5064394;28;20040;-59
2022/01/26 10:53:06;;;;;;;64.20;27.60;;;4.00;99.90;;;;;;5082192;28;20051;-59
2022/01/26 10:55:35;;;;;;;65.78;28.52;;;4.00;99.90;;;;;;5082666;28;20044;-60
2022/01/26 10:58:02;;;;;;;69.68;28.02;;;3.90;99.90;;;;;;5082213;28;20070;-59
2022/01/26 11:00:32;;;;;;;66.40;26.00;;;4.00;99.90;;;;;;5081956;28;20096;-58
2022/01/26 11:02:58;;;;;;;66.60;27.35;;;4.00;99.90;;;;;;5082175;28;20052;-59
2022/01/26 11:05:24;;;;;;;66.63;27.52;;;4.00;99.90;;;;;;5047047;28;20053;-59
2022/01/26 11:07:50;;;;;;;69.75;29.35;;;4.00;99.90;;;;;;5064517;28;20056;-60
2022/01/26 11:10:17;;;;;;;64.70;27.50;;;4.00;99.90;;;;;;5064048;28;20047;-60
2022/01/26 11:12:44;;;;;;;62.75;28.15;;;4.00;99.90;;;;;;5064446;28;20052;-60
2022/01/26 11:15:16;;;;;;;65.18;28.70;;;4.00;99.90;;;;;;5081728;28;20051;-60
2022/01/26 11:17:44;;;;;;;;;;;3.90;99.90;;;;;;5063979;28;20049;-60
2022/01/26 11:20:29;;;;;;;70.05;28.05;;;3.90;99.90;;;;;;5081613;28;19936;-60
2022/01/26 11:22:57;;;;;;;66.40;28.50;;;4.00;99.90;;;;;;5081657;28;20048;-59
2022/01/26 11:25:25;;;;;;;66.15;27.08;;;4.10;99.90;;;;;;5082165;28;20028;-60
2022/01/26 11:27:53;;;;;;;67.55;30.02;;;4.60;99.90;;;;;;5081372;28;20068;-60
2022/01/26 11:30:29;;;;;;;64.03;28.15;;;4.20;99.90;;;;;;5081724;28;20079;-60
2022/01/26 11:33:00;;;;;;;64.95;26.88;;;4.30;99.90;;;;;;5081611;28;20102;-60
2022/01/26 11:35:30;;;;;;;72.20;27.10;;;4.20;99.90;;;;;;5063443;28;20048;-60
2022/01/26 11:47:25;;;;;;;63.45;27.70;;;4.30;99.90;;;;;;5101728;28;20108;-59
2022/01/26 11:50:02;;;;;;;62.58;27.77;;;4.30;99.90;;;;;;5101412;28;20054;-59
2022/01/26 11:52:35;;;;;;;72.68;29.90;;;4.20;99.90;;;;;;5100449;28;20087;-60
2022/01/26 11:55:09;;;;;;;78.20;31.83;;;4.20;99.90;;;;;;5083766;28;20051;-58
2022/01/26 11:57:55;;;;;;;71.80;29.08;;;4.20;99.90;;;;;;5101136;28;20064;-59
2022/01/26 12:00:42;;;;;;;76.97;30.25;;;4.20;99.90;;;;;;5101406;28;20044;-59
2022/01/26 12:03:19;;;;;;;80.90;33.15;;;4.30;99.90;;;;;;5083474;28;20500;-59
2022/01/26 12:05:46;;;;;;;77.57;30.67;;;4.20;99.90;;;;;;5066291;28;20040;-59
2022/01/26 12:08:12;;;;;;;79.10;30.95;;;4.20;99.90;;;;;;5083770;28;20040;-59
2022/01/26 12:10:39;;;;;;;70.45;29.67;;;4.30;99.90;;;;;;5100790;28;20048;-60
2022/01/26 12:13:12;;;;;;;78.65;30.65;;;4.30;99.90;;;;;;5101269;28;20366;-59
2022/01/26 12:18:20;;;;;;;80.38;32.63;;;4.30;99.90;;;;;;5082756;28;20661;-60
2022/01/26 12:34:54;;;;;;;71.20;30.95;;;4.50;99.90;;;;;;5100804;28;20055;-59
2022/01/26 12:45:26;;;;;;;65.47;29.08;;;4.50;99.90;;;;;;5100368;28;20047;-59
2022/01/26 12:47:55;;;;;;;63.97;28.55;;;4.50;99.90;;;;;;5082149;28;20040;-59
2022/01/26 12:50:23;;;;;;;68.97;31.55;;;4.40;99.90;;;;;;5100451;28;20382;-59
2022/01/26 12:52:50;;;;;;;70.38;29.90;;;4.40;99.90;;;;;;5081928;28;20043;-59
2022/01/26 12:55:32;;;;;;;62.55;27.52;;;4.50;99.90;;;;;;5101156;28;20502;-60
2022/01/26 12:57:58;;;;;;;72.90;30.13;;;4.70;99.90;;;;;;5100118;28;20170;-59
2022/01/26 13:00:25;;;;;;;71.32;28.48;;;4.60;99.90;;;;;;5081804;28;20040;-58
2022/01/26 13:02:54;;;;;;;62.47;27.15;;;4.60;99.90;;;;;;5062550;28;20044;-59
2022/01/26 13:05:25;;;;;;;63.85;28.05;;;4.70;99.90;;;;;;5080205;28;20078;-59
2022/01/26 13:08:04;;;;;;;66.93;28.83;;;4.70;99.90;;;;;;5099100;28;20040;-58
2022/01/26 13:10:31;;;;;;;66.55;29.70;;;4.70;99.90;;;;;;5099711;28;20082;-61
2022/01/26 13:13:18;;;;;;;59.78;27.45;;;4.70;99.90;;;;;;5100103;28;20048;-59
2022/01/26 13:16:04;;;;;;;58.40;24.75;;;4.70;99.90;;;;;;5081431;28;20059;-59
2022/01/26 13:21:58;;;;;;;65.53;26.48;;;4.80;99.90;;;;;;5084527;28;20063;-59
2022/01/26 13:24:56;;;;;;;64.80;25.52;;;4.90;99.90;;;;;;5081699;28;20079;-59
2022/01/26 13:30:23;;;;;;;56.65;27.20;;;4.90;99.90;;;;;;5067672;28;20113;-59
2022/01/26 13:35:41;;;;;;;56.65;24.52;;;4.90;99.90;;;;;;5081249;28;20366;-59
2022/01/26 13:40:58;;;;;;;55.80;24.42;;;5.00;99.90;;;;;;5098819;28;20103;-59
2022/01/26 13:54:46;;;;;;;47.38;22.20;;;5.10;99.90;;;;;;5079115;28;20070;-59
2022/01/26 13:57:37;;;;;;;50.70;24.73;;;5.10;99.90;;;;;;5078688;28;20630;-60
2022/01/26 13:59:57;;;;;;;53.28;24.05;;;5.20;99.90;;;;;;5078595;28;20100;-59
2022/01/26 14:02:26;;;;;;;52.90;23.70;;;5.20;99.90;;;;;;5077364;28;20037;-61
2022/01/26 14:04:52;;;;;;;51.28;24.05;;;5.30;99.90;;;;;;5078825;28;20076;-60
2022/01/26 14:07:18;;;;;;;58.60;26.33;;;5.20;99.90;;;;;;5078915;28;20041;-59
2022/01/26 14:09:45;;;;;;;55.22;23.48;;;5.20;99.90;;;;;;5079004;28;20041;-59
2022/01/26 14:12:14;;;;;;;51.92;23.08;;;5.20;99.90;;;;;;5079035;28;20060;-58
2022/01/26 14:14:46;;;;;;;57.53;23.90;;;5.20;99.90;;;;;;5078536;28;20076;-59
2022/01/26 14:17:16;;;;;;;54.63;24.30;;;5.30;99.90;;;;;;5076918;28;20063;-59
2022/01/26 14:27:43;;;;;;;53.65;22.58;;;5.20;99.90;;;;;;5078280;28;20098;-59
2022/01/26 14:52:15;;;;;;;55.05;22.00;;;5.20;99.90;;;;;;5078096;28;20058;-60
2022/01/26 15:20:07;;;;;;;57.75;22.08;;;5.30;99.90;;;;;;5057507;28;20052;-59
2022/01/26 15:51:31;;;;;;;58.38;24.10;;;5.30;99.90;;;;;;5101884;28;20502;-60
2022/01/26 16:07:44;;;;;;;48.25;22.70;;;5.30;99.90;;;;;;5101949;28;20048;-59
2022/01/26 16:16:30;;;;;;;51.90;22.92;;;5.30;99.90;;;;;;5101127;28;20048;-60
2022/01/26 16:21:12;;;;;;;50.83;22.23;;;5.30;99.90;;;;;;5101368;28;20176;-60
2022/01/26 17:37:49;;;;;;;51.65;22.42;;;5.40;99.90;;;;;;5076311;28;20068;-59
2022/01/26 17:46:38;;;;;;;46.75;21.48;;;5.50;99.90;;;;;;5076385;28;20056;-59
2022/01/26 18:06:06;;;;;;;50.15;21.15;;;5.50;99.90;;;;;;5075291;28;20057;-59
2022/01/26 18:13:53;;;;;;;49.67;22.67;;;5.50;99.90;;;;;;5109645;28;20047;-59
2022/01/26 18:16:37;;;;;;;47.72;20.85;;;5.40;99.90;;;;;;5116270;28;20606;-59
2022/01/26 18:32:57;;;;;;;48.10;20.13;;;5.60;99.90;;;;;;5095160;28;20587;-59
2022/01/26 18:51:58;;;;;;;42.30;21.67;;;5.50;99.90;;;;;;5091271;28;20048;-59
2022/01/26 18:54:28;;;;;;;50.45;20.92;;;5.60;99.90;;;;;;5095456;28;20410;-59
2022/01/26 18:56:56;;;;;;;44.55;20.08;;;5.70;99.90;;;;;;5077051;28;20048;-59
2022/01/26 18:59:22;;;;;;;46.33;21.27;;;5.60;99.90;;;;;;5061201;28;20044;-60
2022/01/26 19:01:51;;;;;;;39.58;19.63;;;5.60;99.90;;;;;;5095320;28;20127;-59
2022/01/26 19:04:23;;;;;;;44.88;20.48;;;5.70;99.90;;;;;;5099394;28;20051;-60
2022/01/26 19:06:51;;;;;;;45.17;20.42;;;5.70;99.90;;;;;;5098865;28;20091;-59
2022/01/26 19:09:21;;;;;;;41.45;19.10;;;5.70;99.90;;;;;;5080932;28;20337;-60
2022/01/26 19:11:47;;;;;;;41.58;20.00;;;5.70;99.90;;;;;;5104558;28;20050;-59
2022/01/26 19:14:13;;;;;;;40.10;20.70;;;5.70;99.90;;;;;;5118979;28;20109;-60
2022/01/26 19:16:51;;;;;;;43.00;21.00;;;5.70;99.90;;;;;;5101476;28;20107;-60
2022/01/26 19:22:24;;;;;;;39.55;21.05;;;5.80;99.90;;;;;;5100568;28;20071;-60
2022/01/26 19:27:25;;;;;;;42.53;21.45;;;5.80;99.90;;;;;;5114540;28;20074;-60
2022/01/26 19:51:42;;;;;;;41.50;19.48;;;5.90;99.90;;;;;;5078168;28;20040;-60
2022/01/26 19:54:08;;;;;;;;;;;5.90;99.90;;;;;;5078606;28;20055;-59
2022/01/26 19:56:34;;;;;;;41.70;19.13;;;5.90;99.90;;;;;;5077554;28;20412;-60
2022/01/26 19:58:59;;;;;;;42.95;18.42;;;5.90;99.90;;;;;;5078433;28;20059;-60